sensor_id;sensor_type;location;lat;lon;timestamp;pressure;altitude;pressure_sealevel;temperature;humidity
28354;BME280;15603;50.878;8.036;2022-10-17T00:02:24;146535.28;;;13.83;100.00
28354;BME280;15603;50.878;8.036;2022-10-17T00:04:51;146601.06;;;14.10;100.00
28354;BME280;15603;50.878;8.036;2022-10-17T00:07:19;146599.84;;;14.10;100.00
28354;BME280;15603;50.878;8.036;2022-10-17T00:09:46;146545.03;;;13.87;100.00
28354;BME280;15603;50.878;8.036;2022-10-17T00:12:13;146592.56;;;14.07;100.00
28354;BME280;15603;50.878;8.036;2022-10-17T00:14:40;146587.66;;;14.05;100.00
28354;BME280;15603;50.878;8.036;2022-10-17T00:17:07;146558.44;;;13.92;100.00
28354;BME280;15603;50.878;8.036;2022-10-17T00:19:34;146574.28;;;13.99;100.00
28354;BME280;15603;50.878;8.036;2022-10-17T00:22:01;146546.22;;;13.87;100.00
28354;BME280;15603;50.878;8.036;2022-10-17T00:24:29;146527.97;;;13.80;100.00
28354;BME280;15603;50.878;8.036;2022-10-17T00:26:57;146596.19;;;14.08;100.00
28354;BME280;15603;50.878;8.036;2022-10-17T00:29:24;146602.31;;;14.11;100.00
28354;BME280;15603;50.878;8.036;2022-10-17T00:31:55;146592.56;;;14.07;100.00
28354;BME280;15603;50.878;8.036;2022-10-17T00:34:23;146581.56;;;14.02;100.00
28354;BME280;15603;50.878;8.036;2022-10-17T00:36:51;146546.22;;;13.87;100.00
28354;BME280;15603;50.878;8.036;2022-10-17T00:39:18;146569.38;;;13.97;100.00
28354;BME280;15603;50.878;8.036;2022-10-17T00:41:45;146592.56;;;14.07;100.00
28354;BME280;15603;50.878;8.036;2022-10-17T00:47:00;146624.19;;;14.20;100.00
28354;BME280;15603;50.878;8.036;2022-10-17T00:49:31;146604.72;;;14.12;100.00
28354;BME280;15603;50.878;8.036;2022-10-17T00:52:04;146607.19;;;14.13;100.00
28354;BME280;15603;50.878;8.036;2022-10-17T00:54:38;146612.03;;;14.15;100.00
28354;BME280;15603;50.878;8.036;2022-10-17T00:57:06;146615.72;;;14.17;100.00
28354;BME280;15603;50.878;8.036;2022-10-17T00:59:35;146614.47;;;14.16;100.00
28354;BME280;15603;50.878;8.036;2022-10-17T01:02:05;146599.84;;;14.10;100.00
28354;BME280;15603;50.878;8.036;2022-10-17T01:04:32;146591.31;;;14.06;100.00
28354;BME280;15603;50.878;8.036;2022-10-17T01:06:59;146592.56;;;14.07;100.00
28354;BME280;15603;50.878;8.036;2022-10-17T01:09:26;146596.19;;;14.08;100.00
28354;BME280;15603;50.878;8.036;2022-10-17T01:12:18;146587.66;;;14.05;100.00
28354;BME280;15603;50.878;8.036;2022-10-17T01:15:07;146577.91;;;14.01;100.00
28354;BME280;15603;50.878;8.036;2022-10-17T01:21:01;146554.75;;;13.91;100.00
28354;BME280;15603;50.878;8.036;2022-10-17T01:32:07;146582.78;;;14.03;100.00
28354;BME280;15603;50.878;8.036;2022-10-17T01:34:40;146563.31;;;13.94;100.00
28354;BME280;15603;50.878;8.036;2022-10-17T01:37:20;146582.78;;;14.03;100.00
28354;BME280;15603;50.878;8.036;2022-10-17T01:42:34;146612.03;;;14.15;100.00
28354;BME280;15603;50.878;8.036;2022-10-17T01:45:12;146551.09;;;13.89;100.00
28354;BME280;15603;50.878;8.036;2022-10-17T01:47:40;146619.34;;;14.18;100.00
28354;BME280;15603;50.878;8.036;2022-10-17T01:50:16;146648.59;;;14.30;100.00
28354;BME280;15603;50.878;8.036;2022-10-17T01:52:50;146643.72;;;14.28;100.00
28354;BME280;15603;50.878;8.036;2022-10-17T01:55:23;146666.88;;;14.38;100.00
28354;BME280;15603;50.878;8.036;2022-10-17T01:57:57;146609.59;;;14.14;100.00
28354;BME280;15603;50.878;8.036;2022-10-17T02:00:27;146629.13;;;14.22;100.00
28354;BME280;15603;50.878;8.036;2022-10-17T02:02:58;146653.47;;;14.32;100.00
28354;BME280;15603;50.878;8.036;2022-10-17T02:05:30;146669.28;;;14.39;100.00
28354;BME280;15603;50.878;8.036;2022-10-17T02:07:58;146676.63;;;14.42;100.00
28354;BME280;15603;50.878;8.036;2022-10-17T02:10:53;146670.53;;;14.40;100.00
28354;BME280;15603;50.878;8.036;2022-10-17T02:18:53;146702.22;;;14.53;100.00
28354;BME280;15603;50.878;8.036;2022-10-17T02:21:44;146672.97;;;14.41;100.00
28354;BME280;15603;50.878;8.036;2022-10-17T02:27:11;146646.13;;;14.29;100.00
28354;BME280;15603;50.878;8.036;2022-10-17T02:29:49;146529.22;;;13.80;100.00
28354;BME280;15603;50.878;8.036;2022-10-17T02:32:33;146594.97;;;14.08;100.00
28354;BME280;15603;50.878;8.036;2022-10-17T02:35:04;146499.94;;;13.68;100.00
28354;BME280;15603;50.878;8.036;2022-10-17T02:37:35;146546.22;;;13.87;100.00
28354;BME280;15603;50.878;8.036;2022-10-17T02:40:03;146524.34;;;13.78;100.00
28354;BME280;15603;50.878;8.036;2022-10-17T02:42:31;146529.22;;;13.80;100.00
28354;BME280;15603;50.878;8.036;2022-10-17T02:45:00;146520.69;;;13.77;100.00
28354;BME280;15603;50.878;8.036;2022-10-17T02:47:35;146527.97;;;13.80;100.00
28354;BME280;15603;50.878;8.036;2022-10-17T02:50:05;146531.63;;;13.81;100.00
28354;BME280;15603;50.878;8.036;2022-10-17T02:52:42;146523.09;;;13.78;100.00
28354;BME280;15603;50.878;8.036;2022-10-17T02:55:22;146499.94;;;13.68;100.00
28354;BME280;15603;50.878;8.036;2022-10-17T02:57:57;146458.53;;;13.50;100.00
28354;BME280;15603;50.878;8.036;2022-10-17T03:00:27;146509.69;;;13.72;100.00
28354;BME280;15603;50.878;8.036;2022-10-17T03:02:55;146457.34;;;13.50;100.00
28354;BME280;15603;50.878;8.036;2022-10-17T03:05:25;146468.28;;;13.54;100.00
28354;BME280;15603;50.878;8.036;2022-10-17T03:07:53;146520.69;;;13.77;100.00
28354;BME280;15603;50.878;8.036;2022-10-17T03:10:21;146524.34;;;13.78;100.00
28354;BME280;15603;50.878;8.036;2022-10-17T03:12:48;146531.63;;;13.81;100.00
28354;BME280;15603;50.878;8.036;2022-10-17T03:15:16;146554.75;;;13.91;100.00
28354;BME280;15603;50.878;8.036;2022-10-17T03:17:43;146541.38;;;13.85;100.00
28354;BME280;15603;50.878;8.036;2022-10-17T03:20:15;146556.00;;;13.91;100.00
28354;BME280;15603;50.878;8.036;2022-10-17T03:22:44;146517.00;;;13.75;100.00
28354;BME280;15603;50.878;8.036;2022-10-17T03:25:11;146504.81;;;13.70;100.00
28354;BME280;15603;50.878;8.036;2022-10-17T03:27:38;146448.81;;;13.46;100.00
28354;BME280;15603;50.878;8.036;2022-10-17T03:30:06;146451.25;;;13.47;100.00
28354;BME280;15603;50.878;8.036;2022-10-17T03:32:34;146443.94;;;13.44;100.00
28354;BME280;15603;50.878;8.036;2022-10-17T03:35:02;146452.47;;;13.48;100.00
28354;BME280;15603;50.878;8.036;2022-10-17T03:37:29;146413.47;;;13.31;100.00
28354;BME280;15603;50.878;8.036;2022-10-17T03:39:58;146424.47;;;13.36;100.00
28354;BME280;15603;50.878;8.036;2022-10-17T03:42:25;146453.66;;;13.48;100.00
28354;BME280;15603;50.878;8.036;2022-10-17T03:44:52;146468.28;;;13.54;100.00
28354;BME280;15603;50.878;8.036;2022-10-17T03:47:19;146496.28;;;13.66;100.00
28354;BME280;15603;50.878;8.036;2022-10-17T03:49:47;146504.81;;;13.70;100.00
28354;BME280;15603;50.878;8.036;2022-10-17T03:52:15;146519.47;;;13.76;100.00
28354;BME280;15603;50.878;8.036;2022-10-17T03:54:42;146517.00;;;13.75;100.00
28354;BME280;15603;50.878;8.036;2022-10-17T03:57:09;146480.47;;;13.60;100.00
28354;BME280;15603;50.878;8.036;2022-10-17T03:59:37;146487.81;;;13.63;100.00
28354;BME280;15603;50.878;8.036;2022-10-17T04:02:09;146414.72;;;13.32;100.00
28354;BME280;15603;50.878;8.036;2022-10-17T04:04:36;146478.03;;;13.59;100.00
28354;BME280;15603;50.878;8.036;2022-10-17T04:07:04;146507.28;;;13.71;100.00
28354;BME280;15603;50.878;8.036;2022-10-17T04:09:33;146491.41;;;13.64;100.00
28354;BME280;15603;50.878;8.036;2022-10-17T04:12:06;146476.81;;;13.58;100.00
28354;BME280;15603;50.878;8.036;2022-10-17T04:14:36;146487.81;;;13.63;100.00
28354;BME280;15603;50.878;8.036;2022-10-17T04:17:03;146458.53;;;13.50;100.00
28354;BME280;15603;50.878;8.036;2022-10-17T04:19:32;146473.16;;;13.57;100.00
28354;BME280;15603;50.878;8.036;2022-10-17T04:21:59;146465.88;;;13.53;100.00
28354;BME280;15603;50.878;8.036;2022-10-17T04:24:28;146479.28;;;13.59;100.00
28354;BME280;15603;50.878;8.036;2022-10-17T04:27:03;146485.34;;;13.62;100.00
28354;BME280;15603;50.878;8.036;2022-10-17T04:29:33;146497.53;;;13.67;100.00
28354;BME280;15603;50.878;8.036;2022-10-17T04:32:08;146471.94;;;13.56;100.00
28354;BME280;15603;50.878;8.036;2022-10-17T04:34:42;146473.16;;;13.57;100.00
28354;BME280;15603;50.878;8.036;2022-10-17T04:37:10;146480.47;;;13.60;100.00
28354;BME280;15603;50.878;8.036;2022-10-17T04:39:37;146487.81;;;13.63;100.00
28354;BME280;15603;50.878;8.036;2022-10-17T04:42:04;146443.94;;;13.44;100.00
28354;BME280;15603;50.878;8.036;2022-10-17T04:44:31;146487.81;;;13.63;100.00
28354;BME280;15603;50.878;8.036;2022-10-17T04:47:00;146503.63;;;13.69;100.00
28354;BME280;15603;50.878;8.036;2022-10-17T04:49:27;146509.69;;;13.72;100.00
28354;BME280;15603;50.878;8.036;2022-10-17T04:51:59;146403.69;;;13.27;100.00
28354;BME280;15603;50.878;8.036;2022-10-17T04:54:43;146409.88;;;13.30;100.00
28354;BME280;15603;50.878;8.036;2022-10-17T04:57:12;146513.34;;;13.73;100.00
28354;BME280;15603;50.878;8.036;2022-10-17T04:59:42;146514.56;;;13.74;100.00
28354;BME280;15603;50.878;8.036;2022-10-17T05:02:32;146504.81;;;13.70;100.00
28354;BME280;15603;50.878;8.036;2022-10-17T05:05:01;146499.94;;;13.68;100.00
28354;BME280;15603;50.878;8.036;2022-10-17T05:07:28;146504.81;;;13.70;100.00
28354;BME280;15603;50.878;8.036;2022-10-17T05:10:06;146451.25;;;13.47;100.00
28354;BME280;15603;50.878;8.036;2022-10-17T05:12:33;146515.81;;;13.74;100.00
28354;BME280;15603;50.878;8.036;2022-10-17T05:15:00;146524.34;;;13.78;100.00
28354;BME280;15603;50.878;8.036;2022-10-17T05:17:28;146532.81;;;13.82;100.00
28354;BME280;15603;50.878;8.036;2022-10-17T05:19:55;146541.38;;;13.85;100.00
28354;BME280;15603;50.878;8.036;2022-10-17T05:22:22;146467.06;;;13.54;100.00
28354;BME280;15603;50.878;8.036;2022-10-17T05:24:49;146537.75;;;13.84;100.00
28354;BME280;15603;50.878;8.036;2022-10-17T05:27:17;146559.63;;;13.93;100.00
28354;BME280;15603;50.878;8.036;2022-10-17T05:29:44;146565.75;;;13.96;100.00
28354;BME280;15603;50.878;8.036;2022-10-17T05:32:23;146553.56;;;13.90;100.00
28354;BME280;15603;50.878;8.036;2022-10-17T05:34:50;146463.41;;;13.52;100.00
28354;BME280;15603;50.878;8.036;2022-10-17T05:37:19;146573.03;;;13.99;100.00
28354;BME280;15603;50.878;8.036;2022-10-17T05:39:49;146582.78;;;14.03;100.00
28354;BME280;15603;50.878;8.036;2022-10-17T05:42:18;146575.50;;;14.00;100.00
28354;BME280;15603;50.878;8.036;2022-10-17T05:44:46;146569.38;;;13.97;100.00
28354;BME280;15603;50.878;8.036;2022-10-17T05:47:15;146582.78;;;14.03;100.00
28354;BME280;15603;50.878;8.036;2022-10-17T05:49:43;146588.91;;;14.05;100.00
28354;BME280;15603;50.878;8.036;2022-10-17T05:52:19;146495.09;;;13.66;100.00
28354;BME280;15603;50.878;8.036;2022-10-17T05:55:12;146554.75;;;13.91;100.00
28354;BME280;15603;50.878;8.036;2022-10-17T05:57:39;146546.22;;;13.87;100.00
28354;BME280;15603;50.878;8.036;2022-10-17T06:00:12;146580.38;;;14.02;100.00
28354;BME280;15603;50.878;8.036;2022-10-17T06:02:46;146585.22;;;14.04;100.00
28354;BME280;15603;50.878;8.036;2022-10-17T06:05:15;146562.09;;;13.94;100.00
28354;BME280;15603;50.878;8.036;2022-10-17T06:07:42;146580.38;;;14.02;100.00
28354;BME280;15603;50.878;8.036;2022-10-17T06:10:12;146607.19;;;14.13;100.00
28354;BME280;15603;50.878;8.036;2022-10-17T06:12:41;146599.84;;;14.10;100.00
28354;BME280;15603;50.878;8.036;2022-10-17T06:15:09;146608.38;;;14.13;100.00
28354;BME280;15603;50.878;8.036;2022-10-17T06:17:38;146607.19;;;14.13;100.00
28354;BME280;15603;50.878;8.036;2022-10-17T06:20:06;146623.00;;;14.20;100.00
28354;BME280;15603;50.878;8.036;2022-10-17T06:22:33;146638.84;;;14.26;100.00
28354;BME280;15603;50.878;8.036;2022-10-17T06:25:03;146658.34;;;14.34;100.00
28354;BME280;15603;50.878;8.036;2022-10-17T06:27:30;146665.66;;;14.38;100.00
28354;BME280;15603;50.878;8.036;2022-10-17T06:29:57;146608.38;;;14.13;100.00
28354;BME280;15603;50.878;8.036;2022-10-17T06:32:27;146709.50;;;14.56;100.00
28354;BME280;15603;50.878;8.036;2022-10-17T06:34:54;146629.13;;;14.22;100.00
28354;BME280;15603;50.878;8.036;2022-10-17T06:37:21;146746.13;;;14.71;100.00
28354;BME280;15603;50.878;8.036;2022-10-17T06:39:48;146660.75;;;14.36;100.00
28354;BME280;15603;50.878;8.036;2022-10-17T06:42:19;146748.59;;;14.72;100.00
28354;BME280;15603;50.878;8.036;2022-10-17T06:45:06;146727.84;;;14.64;100.00
28354;BME280;15603;50.878;8.036;2022-10-17T06:47:42;146790.03;;;14.90;100.00
28354;BME280;15603;50.878;8.036;2022-10-17T06:50:29;146816.84;;;15.01;100.00
28354;BME280;15603;50.878;8.036;2022-10-17T06:53:05;146770.50;;;14.82;100.00
28354;BME280;15603;50.878;8.036;2022-10-17T06:55:51;146780.28;;;14.86;100.00
28354;BME280;15603;50.878;8.036;2022-10-17T06:58:40;146866.84;;;15.22;100.00
28354;BME280;15603;50.878;8.036;2022-10-17T07:01:20;146865.59;;;15.22;100.00
28354;BME280;15603;50.878;8.036;2022-10-17T07:03:50;146882.66;;;15.29;100.00
28354;BME280;15603;50.878;8.036;2022-10-17T07:06:18;146898.50;;;15.36;100.00
28354;BME280;15603;50.878;8.036;2022-10-17T07:08:46;146894.88;;;15.34;100.00
28354;BME280;15603;50.878;8.036;2022-10-17T07:11:20;146903.41;;;15.38;100.00
28354;BME280;15603;50.878;8.036;2022-10-17T07:13:50;146902.16;;;15.37;100.00
28354;BME280;15603;50.878;8.036;2022-10-17T07:16:17;146897.28;;;15.35;100.00
28354;BME280;15603;50.878;8.036;2022-10-17T07:18:49;146963.16;;;15.63;100.00
28354;BME280;15603;50.878;8.036;2022-10-17T07:21:18;146963.16;;;15.63;100.00
28354;BME280;15603;50.878;8.036;2022-10-17T07:23:45;146990.00;;;15.74;100.00
28354;BME280;15603;50.878;8.036;2022-10-17T07:26:14;146886.34;;;15.30;100.00
28354;BME280;15603;50.878;8.036;2022-10-17T07:28:43;147029.06;;;15.90;100.00
28354;BME280;15603;50.878;8.036;2022-10-17T07:31:27;147024.19;;;15.88;100.00
28354;BME280;15603;50.878;8.036;2022-10-17T07:33:54;146993.69;;;15.76;100.00
28354;BME280;15603;50.878;8.036;2022-10-17T07:36:21;147092.50;;;16.17;100.00
28354;BME280;15603;50.878;8.036;2022-10-17T07:38:49;147112.00;;;16.25;100.00
28354;BME280;15603;50.878;8.036;2022-10-17T07:41:17;147081.50;;;16.13;100.00
28354;BME280;15603;50.878;8.036;2022-10-17T07:43:48;147158.38;;;16.45;100.00
28354;BME280;15603;50.878;8.036;2022-10-17T07:46:20;147144.94;;;16.39;100.00
28354;BME280;15603;50.878;8.036;2022-10-17T07:48:47;147149.81;;;16.41;100.00
28354;BME280;15603;50.878;8.036;2022-10-17T07:51:14;147143.75;;;16.39;100.00
28354;BME280;15603;50.878;8.036;2022-10-17T07:53:42;147220.63;;;16.71;100.00
28354;BME280;15603;50.878;8.036;2022-10-17T07:56:14;147204.72;;;16.64;100.00
28354;BME280;15603;50.878;8.036;2022-10-17T07:58:42;147242.59;;;16.80;100.00
28354;BME280;15603;50.878;8.036;2022-10-17T08:01:10;147303.66;;;17.06;100.00
28354;BME280;15603;50.878;8.036;2022-10-17T08:03:45;147337.81;;;17.20;100.00
28354;BME280;15603;50.878;8.036;2022-10-17T08:06:13;147331.72;;;17.18;100.00
28354;BME280;15603;50.878;8.036;2022-10-17T08:08:40;147319.50;;;17.13;100.00
28354;BME280;15603;50.878;8.036;2022-10-17T08:11:10;147307.34;;;17.07;100.00
28354;BME280;15603;50.878;8.036;2022-10-17T08:13:38;147321.97;;;17.14;100.00
28354;BME280;15603;50.878;8.036;2022-10-17T08:16:08;147353.72;;;17.27;100.00
28354;BME280;15603;50.878;8.036;2022-10-17T08:18:35;147351.25;;;17.26;100.00
28354;BME280;15603;50.878;8.036;2022-10-17T08:21:04;147395.22;;;17.44;100.00
28354;BME280;15603;50.878;8.036;2022-10-17T08:23:35;147339.06;;;17.21;100.00
28354;BME280;15603;50.878;8.036;2022-10-17T08:26:04;147384.25;;;17.40;100.00
28354;BME280;15603;50.878;8.036;2022-10-17T08:28:34;147451.38;;;17.68;100.00
28354;BME280;15603;50.878;8.036;2022-10-17T08:31:06;147468.50;;;17.75;100.00
28354;BME280;15603;50.878;8.036;2022-10-17T08:33:33;147507.59;;;17.92;100.00
28354;BME280;15603;50.878;8.036;2022-10-17T08:36:01;147500.28;;;17.89;100.00
28354;BME280;15603;50.878;8.036;2022-10-17T08:38:29;147525.91;;;17.99;100.00
28354;BME280;15603;50.878;8.036;2022-10-17T08:41:04;147524.72;;;17.99;100.00
28354;BME280;15603;50.878;8.036;2022-10-17T08:46:27;147550.38;;;18.10;100.00
28354;BME280;15603;50.878;8.036;2022-10-17T08:48:57;147605.34;;;18.33;100.00
28354;BME280;15603;50.878;8.036;2022-10-17T08:51:32;147639.53;;;18.47;100.00
28354;BME280;15603;50.878;8.036;2022-10-17T08:54:11;147688.44;;;18.68;100.00
28354;BME280;15603;50.878;8.036;2022-10-17T08:56:45;147728.81;;;18.85;100.00
28354;BME280;15603;50.878;8.036;2022-10-17T08:59:20;147765.47;;;19.00;100.00
28354;BME280;15603;50.878;8.036;2022-10-17T09:01:58;147725.13;;;18.83;100.00
28354;BME280;15603;50.878;8.036;2022-10-17T09:13:22;147952.56;;;19.78;95.54
28354;BME280;15603;50.878;8.036;2022-10-17T09:16:23;147947.63;;;19.76;95.02
28354;BME280;15603;50.878;8.036;2022-10-17T09:19:03;147881.56;;;19.49;94.77
28354;BME280;15603;50.878;8.036;2022-10-17T09:27:07;147942.75;;;19.74;93.20
28354;BME280;15603;50.878;8.036;2022-10-17T09:29:38;147888.94;;;19.52;94.03
28354;BME280;15603;50.878;8.036;2022-10-17T09:32:15;147939.09;;;19.73;94.34
28354;BME280;15603;50.878;8.036;2022-10-17T09:34:43;147956.19;;;19.80;93.08
28354;BME280;15603;50.878;8.036;2022-10-17T09:37:12;147945.22;;;19.75;92.16
28354;BME280;15603;50.878;8.036;2022-10-17T09:39:41;148145.84;;;20.59;91.33
28354;BME280;15603;50.878;8.036;2022-10-17T09:42:11;148128.66;;;20.52;89.44
28354;BME280;15603;50.878;8.036;2022-10-17T09:44:48;148121.31;;;20.49;90.76
28354;BME280;15603;50.878;8.036;2022-10-17T09:47:28;148133.53;;;20.54;89.21
28354;BME280;15603;50.878;8.036;2022-10-17T09:49:56;148187.44;;;20.77;89.12
28354;BME280;15603;50.878;8.036;2022-10-17T09:52:38;148153.16;;;20.63;88.66
28354;BME280;15603;50.878;8.036;2022-10-17T09:55:19;148268.16;;;21.11;86.79
28354;BME280;15603;50.878;8.036;2022-10-17T09:57:53;148317.13;;;21.31;85.18
28354;BME280;15603;50.878;8.036;2022-10-17T10:00:24;148284.09;;;21.17;86.46
28354;BME280;15603;50.878;8.036;2022-10-17T10:05:41;148085.84;;;20.34;87.87
28354;BME280;15603;50.878;8.036;2022-10-17T10:08:16;148170.28;;;20.70;88.30
28354;BME280;15603;50.878;8.036;2022-10-17T10:10:44;148197.22;;;20.81;87.89
28354;BME280;15603;50.878;8.036;2022-10-17T10:15:41;148205.78;;;20.85;87.96
28354;BME280;15603;50.878;8.036;2022-10-17T10:21:18;148127.44;;;20.52;88.83
28354;BME280;15603;50.878;8.036;2022-10-17T10:26:38;148016.09;;;20.05;91.23
28354;BME280;15603;50.878;8.036;2022-10-17T10:29:33;148003.91;;;20.00;91.92
28354;BME280;15603;50.878;8.036;2022-10-17T10:32:34;147985.56;;;19.92;92.32
28354;BME280;15603;50.878;8.036;2022-10-17T10:35:15;148041.81;;;20.16;91.56
28354;BME280;15603;50.878;8.036;2022-10-17T10:37:46;148148.25;;;20.61;89.42
28354;BME280;15603;50.878;8.036;2022-10-17T10:40:17;148205.78;;;20.85;88.63
28354;BME280;15603;50.878;8.036;2022-10-17T10:42:48;148265.75;;;21.10;86.67
28354;BME280;15603;50.878;8.036;2022-10-17T10:48:10;148351.41;;;21.46;85.72
28354;BME280;15603;50.878;8.036;2022-10-17T10:50:45;148291.41;;;21.21;83.77
28354;BME280;15603;50.878;8.036;2022-10-17T10:53:40;148337.91;;;21.40;83.88
28354;BME280;15603;50.878;8.036;2022-10-17T10:59:02;148307.34;;;21.27;86.43
28354;BME280;15603;50.878;8.036;2022-10-17T11:07:01;148319.56;;;21.32;84.46
28354;BME280;15603;50.878;8.036;2022-10-17T11:09:52;148389.41;;;21.62;83.16
28354;BME280;15603;50.878;8.036;2022-10-17T11:12:24;148419.97;;;21.74;84.08
28354;BME280;15603;50.878;8.036;2022-10-17T11:15:02;148478.75;;;21.99;82.85
28354;BME280;15603;50.878;8.036;2022-10-17T11:17:37;148544.94;;;22.27;81.89
28354;BME280;15603;50.878;8.036;2022-10-17T11:20:14;148574.31;;;22.39;81.19
28354;BME280;15603;50.878;8.036;2022-10-17T11:22:46;148625.75;;;22.61;79.29
28354;BME280;15603;50.878;8.036;2022-10-17T11:25:33;148667.38;;;22.78;77.62
28354;BME280;15603;50.878;8.036;2022-10-17T11:28:03;148635.53;;;22.65;78.12
28354;BME280;15603;50.878;8.036;2022-10-17T11:31:08;148587.78;;;22.45;78.25
28354;BME280;15603;50.878;8.036;2022-10-17T11:36:06;148614.75;;;22.56;77.28
28354;BME280;15603;50.878;8.036;2022-10-17T11:38:54;148601.25;;;22.50;78.33
28354;BME280;15603;50.878;8.036;2022-10-17T11:46:41;148603.69;;;22.51;81.42
28354;BME280;15603;50.878;8.036;2022-10-17T11:49:12;148611.06;;;22.54;79.18
28354;BME280;15603;50.878;8.036;2022-10-17T11:52:36;148581.69;;;22.42;79.65
28354;BME280;15603;50.878;8.036;2022-10-17T11:55:14;148592.69;;;22.47;79.76
28354;BME280;15603;50.878;8.036;2022-10-17T11:57:48;148531.41;;;22.21;79.20
28354;BME280;15603;50.878;8.036;2022-10-17T12:00:33;148488.53;;;22.03;79.67
28354;BME280;15603;50.878;8.036;2022-10-17T12:06:13;148521.59;;;22.17;81.59
28354;BME280;15603;50.878;8.036;2022-10-17T12:11:47;148525.25;;;22.19;80.21
28354;BME280;15603;50.878;8.036;2022-10-17T12:14:42;148538.75;;;22.24;78.12
28354;BME280;15603;50.878;8.036;2022-10-17T12:17:21;148549.84;;;22.29;77.63
28354;BME280;15603;50.878;8.036;2022-10-17T12:19:48;148586.56;;;22.44;78.89
28354;BME280;15603;50.878;8.036;2022-10-17T12:22:24;148531.41;;;22.21;78.41
28354;BME280;15603;50.878;8.036;2022-10-17T12:24:57;148590.22;;;22.46;77.34
28354;BME280;15603;50.878;8.036;2022-10-17T12:35:38;148552.25;;;22.30;78.38
28354;BME280;15603;50.878;8.036;2022-10-17T12:38:22;148549.84;;;22.29;77.71
28354;BME280;15603;50.878;8.036;2022-10-17T12:40:55;148625.75;;;22.61;77.14
28354;BME280;15603;50.878;8.036;2022-10-17T12:46:03;148638.00;;;22.66;75.87
28354;BME280;15603;50.878;8.036;2022-10-17T12:51:09;148674.75;;;22.81;77.90
28354;BME280;15603;50.878;8.036;2022-10-17T12:54:14;148691.91;;;22.88;75.60
28354;BME280;15603;50.878;8.036;2022-10-17T12:56:46;148662.47;;;22.76;76.72
28354;BME280;15603;50.878;8.036;2022-10-17T12:59:24;148673.53;;;22.81;76.82
28354;BME280;15603;50.878;8.036;2022-10-17T13:01:55;148636.78;;;22.65;78.44
28354;BME280;15603;50.878;8.036;2022-10-17T13:04:23;148657.59;;;22.74;77.67
28354;BME280;15603;50.878;8.036;2022-10-17T13:06:55;148680.84;;;22.84;76.96
28354;BME280;15603;50.878;8.036;2022-10-17T13:09:31;148699.22;;;22.91;78.46
28354;BME280;15603;50.878;8.036;2022-10-17T13:12:02;148667.38;;;22.78;78.46
28354;BME280;15603;50.878;8.036;2022-10-17T13:14:32;148651.47;;;22.71;77.75
28354;BME280;15603;50.878;8.036;2022-10-17T13:17:02;148611.06;;;22.54;78.13
28354;BME280;15603;50.878;8.036;2022-10-17T13:19:38;148640.44;;;22.67;78.54
28354;BME280;15603;50.878;8.036;2022-10-17T13:22:19;148677.19;;;22.82;78.04
28354;BME280;15603;50.878;8.036;2022-10-17T13:24:48;148750.72;;;23.13;76.16
28354;BME280;15603;50.878;8.036;2022-10-17T13:29:51;148540.00;;;22.25;76.73
28354;BME280;15603;50.878;8.036;2022-10-17T13:32:18;148706.59;;;22.94;75.92
28354;BME280;15603;50.878;8.036;2022-10-17T13:34:45;148679.66;;;22.83;77.53
28354;BME280;15603;50.878;8.036;2022-10-17T13:37:13;148640.44;;;22.67;77.71
28354;BME280;15603;50.878;8.036;2022-10-17T13:39:44;148640.44;;;22.67;78.10
28354;BME280;15603;50.878;8.036;2022-10-17T13:42:28;148638.00;;;22.66;78.79
28354;BME280;15603;50.878;8.036;2022-10-17T13:44:56;148620.84;;;22.59;78.73
28354;BME280;15603;50.878;8.036;2022-10-17T13:47:26;148677.19;;;22.82;78.53
28354;BME280;15603;50.878;8.036;2022-10-17T13:49:55;148592.69;;;22.47;78.01
28354;BME280;15603;50.878;8.036;2022-10-17T13:52:25;148657.59;;;22.74;77.95
28354;BME280;15603;50.878;8.036;2022-10-17T13:54:59;148664.97;;;22.77;79.20
28354;BME280;15603;50.878;8.036;2022-10-17T13:57:32;148650.22;;;22.71;78.69
28354;BME280;15603;50.878;8.036;2022-10-17T14:00:17;148535.06;;;22.23;79.78
28354;BME280;15603;50.878;8.036;2022-10-17T14:02:45;148673.53;;;22.81;77.74
28354;BME280;15603;50.878;8.036;2022-10-17T14:05:16;148628.22;;;22.62;77.98
28354;BME280;15603;50.878;8.036;2022-10-17T14:07:49;148684.53;;;22.85;78.32
28354;BME280;15603;50.878;8.036;2022-10-17T14:10:38;148554.72;;;22.31;78.17
28354;BME280;15603;50.878;8.036;2022-10-17T14:13:06;148652.69;;;22.72;77.78
28354;BME280;15603;50.878;8.036;2022-10-17T14:15:44;148548.56;;;22.28;79.97
28354;BME280;15603;50.878;8.036;2022-10-17T14:18:24;148473.84;;;21.97;79.48
28354;BME280;15603;50.878;8.036;2022-10-17T14:20:52;148510.59;;;22.12;80.91
28354;BME280;15603;50.878;8.036;2022-10-17T14:23:41;148525.25;;;22.19;81.75
28354;BME280;15603;50.878;8.036;2022-10-17T14:26:18;148551.03;;;22.29;80.13
28354;BME280;15603;50.878;8.036;2022-10-17T14:29:02;148597.56;;;22.49;80.23
28354;BME280;15603;50.878;8.036;2022-10-17T14:31:32;148548.56;;;22.28;81.81
28354;BME280;15603;50.878;8.036;2022-10-17T14:34:02;148549.84;;;22.29;80.60
28354;BME280;15603;50.878;8.036;2022-10-17T14:36:38;148573.09;;;22.39;80.54
28354;BME280;15603;50.878;8.036;2022-10-17T14:39:18;148527.75;;;22.20;81.21
28354;BME280;15603;50.878;8.036;2022-10-17T14:41:46;148522.84;;;22.18;84.00
28354;BME280;15603;50.878;8.036;2022-10-17T14:44:26;148468.97;;;21.95;82.37
28354;BME280;15603;50.878;8.036;2022-10-17T14:47:00;148428.56;;;21.78;84.15